WetterOnline ( http://www.wetteronline.de )

Wetter aktuell Chemnitz

Aktuelles Wetter: Chemnitz (420m)

6-stündlich | Neueste Meldungen
Ortszeit Temperatur Wetter
Mi, 14.11. 1:00 7.7° C bewölkt
Di, 13.11. 19:00 8.2° C leicht bewölkt
Di, 13.11. 13:00 10.3° C leichter Regen
Di, 13.11. 7:00 9.7° C bewölkt
Di, 13.11. 1:00 12.8° C wolkig
Mo, 12.11. 19:00 11.0° C wolkig
Mo, 12.11. 13:00 19.0° C leicht bewölkt
Mo, 12.11. 7:00 12.2° C bedeckt
Ortszeit Temperatur Wetter
Mi, 14.11. 1:30 6.5° C fast wolkenlos
Mi, 14.11. 1:20 6.5° C fast wolkenlos
Mi, 14.11. 1:10 6.7° C fast wolkenlos
Mi, 14.11. 1:00 7.7° C bewölkt
Mi, 14.11. 0:40 7.9° C bewölkt
Mi, 14.11. 0:30 7.8° C bewölkt
Mi, 14.11. 0:00 7.7° C wolkig
Di, 13.11. 23:30 7.6° C wolkig
Di, 13.11. 23:00 7.1° C leicht bewölkt
Di, 13.11. 22:30 7.8° C wolkig
Ortszeit Relative Feuchte Sichtweite
Mi, 14.11. 1:00 85% 25 km
Di, 13.11. 19:00 87% 50 km
Di, 13.11. 13:00 89% 16 km
Di, 13.11. 7:00 82% 29 km
Di, 13.11. 1:00 68% 55 km
Mo, 12.11. 19:00 66% 35 km
Mo, 12.11. 13:00 43% 50 km
Mo, 12.11. 7:00 71% 70 km
Ortszeit Relative Feuchte Sichtweite
Mi, 14.11. 1:30 89% 20 km
Mi, 14.11. 1:20 89% -
Mi, 14.11. 1:10 88% -
Mi, 14.11. 1:00 85% 25 km
Mi, 14.11. 0:40 85% -
Mi, 14.11. 0:30 86% 26 km
Mi, 14.11. 0:00 87% 29 km
Di, 13.11. 23:30 87% 30 km
Di, 13.11. 23:00 90% 30 km
Di, 13.11. 22:30 86% 30 km
Ortszeit Niederschlagsmenge Niederschlagsart
Mi, 14.11. 1:00 0.1 l/m2 in 6 Std. Regen
Di, 13.11. 19:00 2 l/m2 in 12 Std. Regen
Di, 13.11. 13:00 1 l/m2 in 6 Std. Regen
Di, 13.11. 7:00 0.1 l/m2 in 12 Std. Regen
Di, 13.11. 1:00 0.0 l/m2 in 6 Std. -
Mo, 12.11. 19:00 0.0 l/m2 in 12 Std. -
Mo, 12.11. 13:00 0.0 l/m2 in 6 Std. -
Mo, 12.11. 7:00 0.0 l/m2 in 12 Std. -
Ortszeit Niederschlagsmenge Niederschlagsart
Mi, 14.11. 1:30 0.0 l/m2 in 1 Std. -
Mi, 14.11. 1:20 keine Meldung -
Mi, 14.11. 1:10 keine Meldung -
Mi, 14.11. 1:00 0.0 l/m2 in 1 Std. Regen
Mi, 14.11. 0:40 keine Meldung -
Mi, 14.11. 0:30 0.0 l/m2 in 1 Std. -
Mi, 14.11. 0:00 0.0 l/m2 in 1 Std. -
Di, 13.11. 23:30 0.0 l/m2 in 1 Std. -
Di, 13.11. 23:00 0.0 l/m2 in 1 Std. -
Di, 13.11. 22:30 0.0 l/m2 in 1 Std. -
Ortszeit Stärke Spitze Richtung
km/h Bft. km/h Grad Sektor
Mi, 14.11. 1:00 24 4 37 240° SW
Di, 13.11. 19:00 24 4 37 230° SW
Di, 13.11. 13:00 26 4 37 250° W
Di, 13.11. 7:00 7 2 25 230° SW
Di, 13.11. 1:00 11 2 25 180° S
Mo, 12.11. 19:00 7 2 20 140° SO
Mo, 12.11. 13:00 9 2 28 170° S
Mo, 12.11. 7:00 9 2 33 190° S
Ortszeit Stärke Spitze Richtung
km/h Bft. km/h Grad Sektor
Mi, 14.11. 1:30 18 3 32 240° SW
Mi, 14.11. 1:20 18 3 - 240° SW
Mi, 14.11. 1:10 22 4 - 240° SW
Mi, 14.11. 1:00 24 4 30 240° SW
Mi, 14.11. 0:40 24 4 - 240° SW
Mi, 14.11. 0:30 18 3 29 240° SW
Mi, 14.11. 0:00 20 4 30 240° SW
Di, 13.11. 23:30 18 3 29 240° SW
Di, 13.11. 23:00 17 3 28 230° SW
Di, 13.11. 22:30 19 3 28 230° SW
Ortszeit Untergrenze Bedeckung Gattung
total tief tief mittel hoch
Mi, 14.11. 1:00 750 m 7/8 7/8 - - -
Di, 13.11. 19:00 1470 m 3/8 3/8 - - -
Di, 13.11. 13:00 660 m 8/8 7/8 - - -
Di, 13.11. 7:00 2700 m 8/8 7/8 - - -
Di, 13.11. 1:00 3300 m 8/8 1/8 - - -
Mo, 12.11. 19:00 7800 m 8/8 0/8 - - -
Mo, 12.11. 13:00 8400 m 5/8 0/8 - - -
Mo, 12.11. 7:00 3900 m 8/8 8/8 - - -
Ortszeit Bedeckungsgrad in Achtel und Wolkenuntergrenze
Mi, 14.11. 1:30 1(930m)
Mi, 14.11. 1:20 1(930m)
Mi, 14.11. 1:10 1(750m) 1(900m)
Mi, 14.11. 1:00 3(750m) 7(1200m) 7(1500m)
Mi, 14.11. 0:40 3(780m) 7(1320m) 7(1500m)
Mi, 14.11. 0:30 4(810m) 7(1050m) 7(1320m)
Mi, 14.11. 0:00 2(780m) 6(1200m) 6(1500m)
Di, 13.11. 23:30 2(870m) 4(1170m) 5(1800m)
Di, 13.11. 23:00 3(870m) 4(1020m)
Di, 13.11. 22:30 3(870m) 5(1050m) 6(1470m)
Ortszeit Luftdruck NN (hPa) Tendenz (hPa in 3 Std.)
Mi, 14.11. 1:00 1030 + 0,7
Di, 13.11. 19:00 1028 + 1,8
Di, 13.11. 13:00 1024 + 1,3
Di, 13.11. 7:00 1021 + 0,5
Di, 13.11. 1:00 1020 + 0,1
Mo, 12.11. 19:00 1020 + 1,0
Mo, 12.11. 13:00 1017 - 0,4
Mo, 12.11. 7:00 1018 0,0
Ortszeit Luftdruck NN (hPa) Tendenz (hPa in 3 Std.)
Mi, 14.11. 1:30 1031 + 1,0
Mi, 14.11. 1:20 1031 keine Meldung
Mi, 14.11. 1:10 1031 keine Meldung
Mi, 14.11. 1:00 1030 + 0,7
Mi, 14.11. 0:40 1030 keine Meldung
Mi, 14.11. 0:30 1030 + 1,0
Mi, 14.11. 0:00 1030 + 1,0
Di, 13.11. 23:30 1030 + 1,1
Di, 13.11. 23:00 1030 + 1,2
Di, 13.11. 22:30 1030 + 1,1
Ortszeit Schneehöhe (cm)
Mi, 14.11. 1:00 0
Di, 13.11. 19:00 0
Di, 13.11. 13:00 0
Di, 13.11. 7:00 0
Di, 13.11. 1:00 0
Mo, 12.11. 19:00 0
Mo, 12.11. 13:00 0
Mo, 12.11. 7:00 0
Ortszeit Schneehöhe (cm)
Mi, 14.11. 1:30 0
Mi, 14.11. 1:20 0
Mi, 14.11. 1:10 0
Mi, 14.11. 1:00 0
Mi, 14.11. 0:40 0
Mi, 14.11. 0:30 0
Mi, 14.11. 0:00 0
Di, 13.11. 23:30 0
Di, 13.11. 23:00 0
Di, 13.11. 22:30 0
Link zu dieser Seite / Seite empfehlen

Das Wetter in ...